Time;durP1;ratioP1;P1;durP2;ratioP2;P2;SDS_P1;SDS_P2;PMS_P1;PMS_P2;Temp;Humidity;BMP_temperature;BMP_pressure;BME280_temperature;BME280_humidity;BME280_pressure;Samples;Min_cycle;Max_cycle;Signal;HPM_P1;HPM_P2
2023/09/30 06:01:43;;;;;;;17.00;9.00;;;;;;;15.09;71.38;99403.00;98747;1270;95045;-76
2023/09/30 06:04:22;;;;;;;17.00;9.00;;;;;;;15.19;71.48;99402.65;107507;1270;94633;-76
2023/09/30 06:07:08;;;;;;;20.80;9.50;;;;;;;15.28;71.39;99402.57;107563;1270;109982;-77
2023/09/30 06:09:45;;;;;;;18.10;9.20;;;;;;;15.40;71.45;99402.86;107565;1270;95274;-76
2023/09/30 06:12:35;;;;;;;;;;;;;;;;;;;;;
2023/09/30 06:15:31;;;;;;;15.40;8.20;;;;;;;15.61;71.39;99404.42;107412;1270;94447;-76
2023/09/30 06:18:12;;;;;;;17.90;8.70;;;;;;;15.69;71.41;99408.52;107535;1270;94678;-80
2023/09/30 06:20:49;;;;;;;18.20;8.60;;;;;;;15.79;71.33;99406.05;107271;1273;109957;-80
2023/09/30 06:26:44;;;;;;;19.30;9.00;;;;;;;16.00;71.32;99411.58;107466;1273;107333;-76
2023/09/30 06:29:36;;;;;;;18.90;8.80;;;;;;;16.07;71.27;99413.04;107508;1270;94604;-76
2023/09/30 06:32:23;;;;;;;18.90;9.10;;;;;;;16.16;71.43;99412.66;107517;1270;94628;-77
2023/09/30 06:34:58;;;;;;;16.80;8.00;;;;;;;16.25;71.48;99419.15;107500;1270;109710;-76
2023/09/30 06:37:29;;;;;;;19.10;8.80;;;;;;;16.34;71.58;99418.33;107537;1270;95506;-76
2023/09/30 06:39:59;;;;;;;18.70;9.10;;;;;;;16.42;71.28;99420.71;107499;1270;107639;-76
2023/09/30 06:42:54;;;;;;;20.30;8.80;;;;;;;16.48;71.37;99425.42;107494;1273;94355;-77
2023/09/30 06:45:44;;;;;;;;;;;;;;;;;;;;;
2023/09/30 06:48:52;;;;;;;19.00;8.10;;;;;;;16.64;71.40;99428.80;107389;1270;110816;-77
2023/09/30 06:51:36;;;;;;;17.80;8.40;;;;;;;16.73;71.29;99427.31;107256;1270;97156;-77
2023/09/30 06:54:11;;;;;;;21.00;8.30;;;;;;;16.79;71.34;99434.80;107532;1270;106070;-77
2023/09/30 06:57:03;;;;;;;18.70;8.30;;;;;;;16.85;71.36;99436.07;107390;1270;94311;-76
2023/09/30 06:59:59;;;;;;;19.70;8.50;;;;;;;16.91;71.35;99438.20;107468;1270;94241;-77
2023/09/30 07:02:53;;;;;;;17.70;8.00;;;;;;;16.96;71.38;99441.86;107448;1270;110026;-77
2023/09/30 07:05:34;;;;;;;20.70;9.00;;;;;;;17.00;71.16;99442.17;107522;1270;97208;-76
2023/09/30 07:08:10;;;;;;;16.20;8.00;;;;;;;17.06;71.32;99444.19;107232;1270;107193;-76
2023/09/30 07:11:13;;;;;;;18.80;8.00;;;;;;;17.10;71.28;99449.02;107523;1270;94288;-77
2023/09/30 07:28:38;;;;;;;;;;;;;;;;;;;;;
2023/09/30 07:31:30;;;;;;;19.30;8.00;;;;;;;17.97;71.06;99458.85;104072;1280;94528;-73
2023/09/30 07:34:39;;;;;;;21.00;8.30;;;;;;;17.97;70.86;99460.50;104776;1262;109076;-75
2023/09/30 07:37:07;;;;;;;19.60;7.80;;;;;;;17.96;70.89;99463.89;105188;1264;95567;-74
2023/09/30 07:39:38;;;;;;;17.80;8.20;;;;;;;17.97;70.79;99465.98;105091;1266;107741;-74
2023/09/30 07:42:16;;;;;;;17.70;8.00;;;;;;;17.99;70.81;99470.14;105071;1260;94296;-75
2023/09/30 07:44:53;;;;;;;16.70;7.50;;;;;;;18.00;70.77;99468.40;104996;1265;94365;-74
2023/09/30 07:47:29;;;;;;;18.40;8.30;;;;;;;18.02;70.85;99468.23;104953;1262;107655;-75
2023/09/30 07:50:13;;;;;;;19.30;8.10;;;;;;;18.05;70.70;99475.66;104849;1264;95524;-78
2023/09/30 07:52:45;;;;;;;21.10;9.80;;;;;;;18.08;70.58;99477.20;104822;1265;107607;-77
2023/09/30 07:55:13;;;;;;;29.60;12.20;;;;;;;18.14;70.81;99481.29;104861;1271;95198;-77
2023/09/30 07:57:48;;;;;;;22.20;10.00;;;;;;;18.21;70.73;99480.65;105202;1262;95356;-80
2023/09/30 08:00:16;;;;;;;17.10;8.10;;;;;;;18.29;70.51;99478.42;104795;1264;109155;-77
2023/09/30 08:02:45;;;;;;;19.10;8.50;;;;;;;18.35;70.53;99474.58;105053;1263;96267;-76
2023/09/30 08:05:13;;;;;;;17.60;8.80;;;;;;;18.41;70.46;99478.05;105107;1265;107493;-76
2023/09/30 08:07:45;;;;;;;16.40;7.90;;;;;;;18.49;70.47;99481.50;104833;1262;95255;-77
2023/09/30 08:10:16;;;;;;;20.20;7.70;;;;;;;18.54;70.30;99483.07;104859;1261;95247;-77
2023/09/30 08:12:49;;;;;;;15.10;6.80;;;;;;;18.61;70.09;99485.27;104925;1272;108362;-78
2023/09/30 08:15:19;;;;;;;17.10;7.40;;;;;;;18.67;70.11;99486.83;104884;1264;95653;-76
2023/09/30 08:17:52;;;;;;;16.60;7.60;;;;;;;18.72;69.82;99488.16;104780;1265;107093;-77
2023/09/30 08:20:20;;;;;;;13.90;7.10;;;;;;;18.76;69.75;99486.34;104989;1265;95296;-76
2023/09/30 08:22:48;;;;;;;16.80;7.60;;;;;;;18.82;69.87;99491.63;104944;1264;95275;-77
2023/09/30 08:25:20;;;;;;;17.00;7.50;;;;;;;18.88;69.51;99489.80;105113;1264;109142;-75
2023/09/30 08:27:49;;;;;;;19.60;8.90;;;;;;;18.94;69.64;99487.97;104905;1264;96051;-80
2023/09/30 08:30:18;;;;;;;19.10;8.40;;;;;;;18.98;69.60;99487.53;106624;1266;107219;-77
2023/09/30 08:32:51;;;;;;;;;;;;;;;19.03;69.42;99490.70;104894;1264;95264;-76
2023/09/30 08:35:31;;;;;;;19.20;7.50;;;;;;;19.08;69.30;99493.89;104842;1264;95203;-77
2023/09/30 08:38:08;;;;;;;16.90;7.70;;;;;;;19.13;68.86;99496.80;104656;1265;108219;-76
2023/09/30 08:40:38;;;;;;;16.10;8.20;;;;;;;19.17;68.84;99495.49;104879;1262;95209;-75
2023/09/30 08:43:11;;;;;;;17.20;7.20;;;;;;;19.22;68.88;99493.95;104891;1265;107556;-77
2023/09/30 08:45:47;;;;;;;18.90;7.90;;;;;;;19.28;69.05;99492.81;104928;1261;95197;-79
2023/09/30 08:48:20;;;;;;;18.90;7.50;;;;;;;19.36;69.12;99491.04;104641;1260;95348;-75
2023/09/30 08:50:54;;;;;;;16.90;7.70;;;;;;;19.42;69.03;99487.64;104875;1265;109347;-76
2023/09/30 08:53:23;;;;;;;20.20;8.80;;;;;;;19.48;68.56;99493.45;104884;1264;95469;-77
2023/09/30 08:55:55;;;;;;;17.50;8.50;;;;;;;19.48;68.15;99494.16;104620;1266;107702;-77
2023/09/30 08:58:26;;;;;;;20.30;8.30;;;;;;;19.49;68.26;99498.21;105025;1265;96791;-77
2023/09/30 09:01:02;;;;;;;19.40;8.20;;;;;;;19.51;68.07;99504.64;104713;1264;95267;-77
2023/09/30 09:03:38;;;;;;;19.80;8.00;;;;;;;19.51;68.09;99501.02;104969;1265;108243;-77
2023/09/30 09:06:07;;;;;;;22.70;9.40;;;;;;;19.58;68.29;99496.60;104803;1264;95540;-77
2023/09/30 09:08:38;;;;;;;21.60;9.00;;;;;;;19.63;67.39;99504.67;104565;1262;107587;-78
2023/09/30 09:11:06;;;;;;;21.00;8.20;;;;;;;19.65;67.87;99497.13;104840;1264;95264;-76
2023/09/30 09:13:49;;;;;;;17.40;9.60;;;;;;;19.68;68.27;99495.89;105055;1264;95264;-77
2023/09/30 09:16:18;;;;;;;;;;;;;;;19.73;68.20;99497.38;104696;1262;108648;-76
2023/09/30 09:18:47;;;;;;;22.70;8.80;;;;;;;19.76;68.07;99504.03;104885;1265;95275;-78
2023/09/30 09:21:17;;;;;;;19.80;9.00;;;;;;;19.79;68.03;99505.70;104986;1262;107619;-75
2023/09/30 09:23:48;;;;;;;19.20;8.30;;;;;;;19.79;67.93;99506.57;104821;1265;95281;-77
2023/09/30 09:26:30;;;;;;;20.20;9.50;;;;;;;19.81;67.76;99507.15;105090;1264;95318;-75
2023/09/30 09:29:07;;;;;;;23.10;10.50;;;;;;;19.83;67.83;99509.31;104807;1262;108519;-78
2023/09/30 09:31:36;;;;;;;18.30;8.30;;;;;;;19.83;67.69;99511.69;104812;1262;95289;-76
2023/09/30 09:34:14;;;;;;;21.10;9.00;;;;;;;19.80;67.72;99508.36;104673;1265;107775;-75
2023/09/30 09:37:04;;;;;;;21.50;9.70;;;;;;;19.74;67.42;99512.90;104702;1264;95310;-75
2023/09/30 09:39:36;;;;;;;18.90;9.20;;;;;;;19.64;67.37;99516.64;104640;1265;95333;-77
2023/09/30 09:42:04;;;;;;;20.60;8.90;;;;;;;19.57;67.29;99521.99;104904;1274;108260;-76
2023/09/30 09:44:39;;;;;;;21.40;9.30;;;;;;;19.49;67.24;99522.66;104879;1260;95367;-77
2023/09/30 09:47:07;;;;;;;21.40;10.00;;;;;;;19.41;67.30;99521.15;105238;1261;107441;-76
2023/09/30 09:49:38;;;;;;;19.50;9.50;;;;;;;19.34;67.28;99518.08;108083;1260;93017;-78
2023/09/30 09:52:06;;;;;;;22.00;9.00;;;;;;;19.30;67.26;99516.70;108104;1264;94076;-76
2023/09/30 09:54:36;;;;;;;18.20;8.90;;;;;;;19.27;67.24;99517.38;108099;1260;108529;-79
2023/09/30 09:57:18;;;;;;;19.50;8.60;;;;;;;19.24;67.20;99521.44;105271;1262;95252;-77
2023/09/30 09:59:47;;;;;;;19.60;9.50;;;;;;;19.22;67.17;99523.08;105110;1265;107688;-77
2023/09/30 10:03:34;;;;;;;21.10;10.40;;;;;;;19.24;67.34;99528.81;103213;1286;637437;-78
2023/09/30 10:06:09;;;;;;;20.10;10.00;;;;;;;19.19;67.29;99527.30;105423;1257;94382;-77
2023/09/30 10:08:46;;;;;;;20.20;9.10;;;;;;;19.18;67.25;99527.02;105312;1261;94417;-76
2023/09/30 10:11:21;;;;;;;21.20;9.70;;;;;;;19.17;67.26;99530.77;105627;1256;106869;-75
2023/09/30 10:13:53;;;;;;;22.00;10.90;;;;;;;19.13;67.17;99528.70;105469;1255;95420;-76
2023/09/30 10:16:35;;;;;;;23.10;11.40;;;;;;;19.08;67.16;99529.19;105274;1257;188136;-77
2023/09/30 10:19:16;;;;;;;26.20;11.30;;;;;;;19.04;67.01;99539.27;105743;1254;94831;-75
2023/09/30 10:22:16;;;;;;;22.30;11.50;;;;;;;18.99;67.20;99534.31;105727;1257;94830;-79
2023/09/30 10:24:44;;;;;;;21.50;10.30;;;;;;;18.96;67.09;99537.94;105731;1254;107156;-76
2023/09/30 10:27:24;;;;;;;22.40;11.70;;;;;;;18.93;67.14;99535.70;105401;1258;95365;-75
2023/09/30 10:30:22;;;;;;;25.30;11.60;;;;;;;18.91;67.14;99535.89;105443;1255;107647;-75
2023/09/30 10:32:52;;;;;;;26.10;12.10;;;;;;;18.90;67.24;99539.33;105644;1254;95351;-74
2023/09/30 10:35:28;;;;;;;24.30;12.20;;;;;;;18.91;67.25;99541.45;105663;1257;95241;-76
2023/09/30 10:38:27;;;;;;;23.60;12.10;;;;;;;18.89;67.34;99541.20;105637;1257;108547;-75
2023/09/30 10:41:04;;;;;;;22.70;12.80;;;;;;;18.85;67.36;99541.45;105714;1264;97851;-76
2023/09/30 10:43:36;;;;;;;26.50;13.30;;;;;;;18.84;67.23;99539.58;105535;1263;107381;-75
2023/09/30 10:46:27;;;;;;;25.50;13.80;;;;;;;18.80;67.32;99538.71;105460;1256;95235;-75
2023/09/30 10:48:55;;;;;;;25.00;14.40;;;;;;;18.73;67.46;99540.87;105658;1256;95233;-79
2023/09/30 10:51:24;;;;;;;24.10;14.60;;;;;;;18.66;67.51;99542.23;105587;1266;108580;-76
2023/09/30 10:54:00;;;;;;;27.40;14.20;;;;;;;18.62;67.59;99539.64;105655;1263;95315;-76
2023/09/30 10:56:34;;;;;;;22.90;13.40;;;;;;;18.58;67.62;99540.17;105787;1256;107526;-77
2023/09/30 10:59:03;;;;;;;26.80;14.20;;;;;;;18.57;67.84;99546.56;105668;1264;96177;-77
2023/09/30 11:01:37;;;;;;;25.00;13.70;;;;;;;18.52;67.63;99548.91;105609;1257;95291;-77
2023/09/30 11:04:08;;;;;;;26.40;14.20;;;;;;;18.48;67.74;99546.57;105718;1256;108566;-76
2023/09/30 11:06:42;;;;;;;31.90;14.30;;;;;;;18.47;67.87;99542.00;105834;1253;95650;-76
2023/09/30 11:09:21;;;;;;;23.70;13.80;;;;;;;18.44;67.91;99541.67;105546;1261;109042;-79
2023/09/30 11:11:55;;;;;;;27.50;15.50;;;;;;;18.47;68.07;99540.54;105707;1253;96216;-77
2023/09/30 11:14:30;;;;;;;25.80;16.60;;;;;;;18.50;67.99;99537.73;105556;1251;95261;-80
2023/09/30 11:17:04;;;;;;;25.10;15.20;;;;;;;18.51;68.08;99537.41;105759;1255;108691;-76
2023/09/30 11:19:52;;;;;;;26.20;15.80;;;;;;;18.54;68.17;99535.02;105759;1254;95503;-77
2023/09/30 11:22:21;;;;;;;23.70;13.00;;;;;;;18.57;68.36;99533.03;105582;1265;107668;-77
2023/09/30 11:24:56;;;;;;;24.10;13.60;;;;;;;18.61;68.17;99530.91;105469;1266;95204;-76
2023/09/30 11:27:24;;;;;;;23.50;12.90;;;;;;;18.63;68.38;99530.54;105683;1263;95181;-76
2023/09/30 11:29:58;;;;;;;21.70;12.40;;;;;;;18.64;68.40;99529.70;105614;1255;108109;-76
2023/09/30 11:32:28;;;;;;;23.60;12.80;;;;;;;18.65;68.47;99527.26;105647;1251;95289;-79
2023/09/30 11:35:24;;;;;;;21.80;13.00;;;;;;;18.69;68.49;99526.05;108897;1251;107627;-77
2023/09/30 11:37:52;;;;;;;24.10;12.90;;;;;;;18.70;68.44;99527.73;108735;1251;93133;-77
2023/09/30 11:40:23;;;;;;;24.40;13.00;;;;;;;18.70;68.44;99530.91;106096;1251;95733;-76
2023/09/30 11:43:11;;;;;;;;;;;;;;;18.70;68.58;99531.11;105667;1251;108443;-76
2023/09/30 11:45:42;;;;;;;22.90;12.70;;;;;;;18.66;68.72;99533.45;107634;1254;95202;-77
2023/09/30 11:48:20;;;;;;;24.80;13.40;;;;;;;18.64;68.53;99533.84;105647;1255;107289;-74
2023/09/30 11:50:50;;;;;;;22.50;13.70;;;;;;;18.64;68.70;99534.08;105727;1258;95338;-75
2023/09/30 11:53:22;;;;;;;24.80;14.20;;;;;;;18.61;68.73;99535.58;105755;1255;95732;-76
2023/09/30 11:55:50;;;;;;;22.70;12.80;;;;;;;18.57;68.91;99546.13;105826;1253;108483;-76
2023/09/30 11:58:19;;;;;;;26.30;13.60;;;;;;;18.54;68.93;99548.79;105772;1254;96196;-77
2023/09/30 12:00:53;;;;;;;26.60;14.10;;;;;;;18.50;68.87;99551.38;105733;1254;107609;-78
2023/09/30 12:03:21;;;;;;;25.50;14.90;;;;;;;18.43;68.99;99547.16;105596;1251;95149;-76
2023/09/30 12:05:55;;;;;;;24.30;14.70;;;;;;;18.38;69.04;99552.14;105661;1254;95259;-76
2023/09/30 12:08:25;;;;;;;26.00;15.00;;;;;;;18.34;69.06;99550.21;105585;1254;108728;-77
2023/09/30 12:10:53;;;;;;;27.30;14.90;;;;;;;18.30;69.11;99551.48;105556;1257;95583;-78
2023/09/30 12:13:24;;;;;;;27.60;15.00;;;;;;;18.26;69.20;99553.52;105477;1258;107519;-78
2023/09/30 12:15:52;;;;;;;27.40;16.50;;;;;;;18.22;69.10;99553.56;105726;1270;95944;-76
2023/09/30 12:18:24;;;;;;;27.80;15.30;;;;;;;18.17;69.26;99551.92;105455;1254;95232;-77
2023/09/30 12:20:53;;;;;;;28.00;16.80;;;;;;;18.10;69.38;99549.83;105750;1253;108614;-78
2023/09/30 12:23:24;;;;;;;28.30;16.50;;;;;;;18.08;69.36;99551.52;105536;1254;95800;-76
2023/09/30 12:25:54;;;;;;;26.60;15.30;;;;;;;18.07;69.54;99542.48;105556;1254;107573;-77
2023/09/30 12:28:41;;;;;;;30.50;16.80;;;;;;;18.06;69.62;99537.35;105734;1254;95412;-76
2023/09/30 12:31:13;;;;;;;28.00;16.60;;;;;;;18.05;69.59;99541.71;105851;1254;95447;-75
2023/09/30 12:33:42;;;;;;;28.50;16.90;;;;;;;18.04;69.75;99539.52;105800;1251;108505;-76
2023/09/30 12:36:12;;;;;;;25.50;15.30;;;;;;;18.03;69.75;99541.90;105624;1264;95189;-77
2023/09/30 12:38:44;;;;;;;24.80;15.10;;;;;;;18.03;69.86;99536.91;105777;1267;107546;-76
2023/09/30 12:41:15;;;;;;;27.00;15.20;;;;;;;18.02;69.91;99541.10;105864;1257;95237;-75
2023/09/30 12:43:46;;;;;;;25.80;15.20;;;;;;;18.01;69.93;99542.80;105731;1251;95245;-76
2023/09/30 12:46:18;;;;;;;25.20;15.40;;;;;;;18.00;70.06;99543.77;106175;1251;108570;-76
2023/09/30 12:48:48;;;;;;;28.60;15.30;;;;;;;18.00;70.15;99546.00;107322;1257;95289;-79
2023/09/30 12:51:17;;;;;;;23.20;14.60;;;;;;;17.99;70.10;99546.41;105831;1252;108488;-76
2023/09/30 12:53:45;;;;;;;26.90;15.10;;;;;;;17.99;70.24;99550.70;105655;1251;96215;-77
2023/09/30 12:56:15;;;;;;;25.90;15.80;;;;;;;17.98;70.21;99549.35;105514;1265;96151;-78
2023/09/30 12:59:24;;;;;;;27.90;14.60;;;;;;;17.96;70.38;99546.88;105514;1267;107607;-76
2023/09/30 13:02:07;;;;;;;25.40;15.00;;;;;;;17.94;70.46;99547.20;105591;1254;96170;-74
2023/09/30 13:04:44;;;;;;;26.70;15.30;;;;;;;17.95;70.51;99545.55;105478;1275;106714;-76
2023/09/30 13:07:28;;;;;;;;;;;;;;;;;;;;;
2023/09/30 13:10:28;;;;;;;;;;;;;;;;;;;;;
2023/09/30 13:13:06;;;;;;;25.20;15.00;;;;;;;17.85;70.68;99543.75;105361;1265;108883;-75
2023/09/30 13:15:41;;;;;;;25.50;15.50;;;;;;;17.84;70.69;99542.05;105431;1257;95291;-76
2023/09/30 13:18:53;;;;;;;27.50;15.80;;;;;;;17.83;70.84;99538.71;105226;1255;110787;-77
2023/09/30 13:21:30;;;;;;;25.90;15.60;;;;;;;17.85;70.89;99536.61;105336;1257;95294;-76
2023/09/30 13:24:07;;;;;;;;;;;;;;;17.85;70.95;99534.93;105393;1255;96133;-76
2023/09/30 13:26:36;;;;;;;26.90;15.20;;;;;;;17.85;71.14;99534.08;105322;1258;107562;-79
2023/09/30 13:29:11;;;;;;;28.00;17.50;;;;;;;17.87;71.18;99534.09;105522;1257;95560;-75
2023/09/30 13:31:39;;;;;;;29.10;18.20;;;;;;;17.90;71.19;99535.27;105496;1257;107614;-77
2023/09/30 13:34:12;;;;;;;27.00;16.60;;;;;;;17.90;71.29;99530.02;105607;1255;95141;-77
2023/09/30 13:36:50;;;;;;;27.70;16.90;;;;;;;17.92;71.22;99526.23;105601;1258;95237;-77
2023/09/30 13:39:25;;;;;;;25.70;16.90;;;;;;;17.93;71.34;99530.45;105455;1257;109707;-78
2023/09/30 13:42:06;;;;;;;28.90;18.40;;;;;;;17.93;71.39;99527.79;105345;1260;95626;-75
2023/09/30 13:45:06;;;;;;;29.30;18.70;;;;;;;17.91;71.29;99530.81;105391;1259;108991;-75
2023/09/30 13:47:59;;;;;;;31.50;18.80;;;;;;;17.88;71.43;99532.58;105369;1258;95291;-75
2023/09/30 13:51:18;;;;;;;30.80;18.60;;;;;;;17.84;71.56;99533.84;105710;1257;95335;-77
2023/09/30 13:54:39;;;;;;;28.60;18.90;;;;;;;17.78;71.65;99534.73;104880;1270;110156;-78
2023/09/30 13:57:29;;;;;;;30.60;19.60;;;;;;;17.75;71.71;99534.48;105228;1260;97308;-77
2023/09/30 14:00:43;;;;;;;;;;;;;;;;;;;;;
2023/09/30 14:03:29;;;;;;;;;;;;;;;;;;;;;
2023/09/30 14:06:15;;;;;;;30.60;19.60;;;;;;;17.63;71.99;99527.70;105674;1253;95245;-76
2023/09/30 14:08:43;;;;;;;32.40;20.40;;;;;;;17.60;72.06;99529.70;105802;1254;108540;-76
2023/09/30 14:11:31;;;;;;;;;;;;;;;;;;;;;
2023/09/30 14:14:51;;;;;;;32.80;21.10;;;;;;;17.52;72.19;99526.74;105701;1251;109004;-79
2023/09/30 14:17:35;;;;;;;34.20;22.20;;;;;;;17.51;72.23;99528.70;105727;1254;95266;-78
2023/09/30 14:21:03;;;;;;;33.40;20.40;;;;;;;17.48;72.36;99526.81;105695;1261;95292;-81
2023/09/30 14:23:55;;;;;;;31.80;20.10;;;;;;;17.46;72.47;99526.27;105250;1261;108995;-79
2023/09/30 14:27:00;;;;;;;32.00;21.40;;;;;;;17.46;72.44;99527.95;105467;1257;96562;-79
2023/09/30 14:29:57;;;;;;;33.40;20.90;;;;;;;17.44;72.62;99523.93;105358;1258;108130;-80
2023/09/30 14:32:38;;;;;;;32.10;20.40;;;;;;;17.42;72.73;99523.59;105483;1251;96593;-77
2023/09/30 14:35:43;;;;;;;30.10;19.80;;;;;;;17.40;72.57;99521.23;105239;1265;97573;-80
2023/09/30 14:39:06;;;;;;;;;;;;;;;;;;;;;
2023/09/30 14:42:16;;;;;;;;;;;;;;;;;;;;;
2023/09/30 14:45:13;;;;;;;30.10;21.00;;;;;;;17.36;72.99;99523.80;105742;1254;110088;-77
2023/09/30 14:48:04;;;;;;;38.50;23.60;;;;;;;17.36;73.07;99522.59;105839;1254;96705;-79
2023/09/30 14:51:47;;;;;;;;;;;;;;;;;;;;;
2023/09/30 14:55:19;;;;;;;31.50;20.70;;;;;;;17.34;73.31;99524.00;105222;1260;110535;-79
2023/09/30 14:58:12;;;;;;;;;;;;;;;;;;;;;
2023/09/30 15:01:30;;;;;;;;;;;;;;;;;;;;;
2023/09/30 15:04:23;;;;;;;;;;;;;;;;;;;;;
2023/09/30 15:07:31;;;;;;;27.70;18.10;;;;;;;17.32;73.58;99520.05;104730;1264;96589;-77
2023/09/30 15:11:32;;;;;;;29.30;19.20;;;;;;;17.35;73.45;99522.70;102358;1293;637118;-83
2023/09/30 15:20:46;;;;;;;;;;;;;;;;;;;;;
2023/09/30 15:38:28;;;;;;;;;;;;;;;;;;;;;
2023/09/30 15:41:45;;;;;;;26.00;17.30;;;;;;;17.12;74.37;99537.27;104984;1276;106354;-85
2023/09/30 15:45:12;;;;;;;;;;;;;;;;;;;;;
2023/09/30 15:59:02;;;;;;;36.00;25.20;;;;;;;17.57;74.14;99555.04;105099;1285;650435;-93
2023/09/30 16:02:38;;;;;;;;;;;;;;;;;;;;;
2023/09/30 16:10:28;;;;;;;35.00;22.20;;;;;;;17.33;75.08;99561.23;104656;1286;107328;-79
2023/09/30 16:18:42;;;;;;;;;;;;;;;;;;;;;
2023/09/30 17:44:14;;;;;;;25.20;13.40;;;;;;;16.59;76.88;99648.80;101149;1274;106130;31
2023/09/30 17:51:19;;;;;;;21.70;10.60;;;;;;;16.52;76.99;99658.01;107406;1274;94294;31
2023/09/30 17:54:44;;;;;;;23.70;10.70;;;;;;;16.47;76.99;99662.95;106102;1280;108726;-92
2023/09/30 17:57:57;;;;;;;;;;;;;;;;;;;;;
2023/09/30 18:10:49;;;;;;;;;;;;;;;;;;;;;
2023/09/30 18:18:02;;;;;;;19.90;7.60;;;;;;;16.24;77.22;99689.95;106674;1276;108300;-91
2023/09/30 18:21:30;;;;;;;15.00;6.90;;;;;;;16.18;77.03;99690.98;107007;1274;94050;-94
2023/09/30 18:25:04;;;;;;;;;;;;;;;;;;;;;
2023/09/30 18:28:33;;;;;;;;;;;;;;;;;;;;;
2023/09/30 18:31:46;;;;;;;15.50;6.50;;;;;;;16.08;76.97;99701.66;106823;1275;95217;-91
2023/09/30 18:35:54;;;;;;;18.70;7.50;;;;;;;16.06;77.16;99702.58;105871;1282;105444;-93
2023/09/30 18:38:48;;;;;;;15.50;6.70;;;;;;;16.02;77.10;99706.11;106520;1282;93164;-91
2023/09/30 18:41:29;;;;;;;20.00;8.90;;;;;;;16.00;77.08;99707.88;106717;1282;93310;-90
2023/09/30 18:59:04;;;;;;;17.50;6.10;;;;;;;16.26;76.69;99731.96;103938;1269;5051952;-93
2023/09/30 19:02:39;;;;;;;18.80;5.30;;;;;;;16.11;76.95;99736.19;107892;1267;92149;-92
2023/09/30 19:05:55;;;;;;;;;;;;;;;;;;;;;
2023/09/30 19:21:16;;;;;;;14.80;5.30;;;;;;;15.71;76.90;99748.70;106844;1273;107869;-91
2023/09/30 19:34:15;;;;;;;16.10;5.70;;;;;;;15.49;76.90;99762.15;106939;1269;95176;-91
2023/09/30 19:37:23;;;;;;;13.50;5.40;;;;;;;15.43;76.92;99763.73;106633;1272;107728;-91
2023/09/30 19:43:07;;;;;;;20.50;6.10;;;;;;;15.33;76.85;99762.21;105226;1267;107116;-93
2023/09/30 19:46:52;;;;;;;15.80;5.40;;;;;;;15.24;76.85;99768.86;107045;1267;95241;-92
2023/09/30 19:53:44;;;;;;;16.10;5.50;;;;;;;15.09;76.98;99776.80;107351;1266;108555;-94
2023/09/30 19:56:48;;;;;;;14.90;4.80;;;;;;;15.06;76.83;99779.77;107333;1269;95064;-91
2023/09/30 20:05:32;;;;;;;22.30;6.60;;;;;;;14.98;76.94;99778.79;107006;1270;94137;-91
2023/09/30 20:08:34;;;;;;;16.70;6.00;;;;;;;14.95;77.03;99783.12;107045;1265;107863;-92
2023/09/30 20:11:39;;;;;;;17.20;6.90;;;;;;;14.93;77.02;99782.02;107483;1262;95190;-94
2023/09/30 20:17:49;;;;;;;19.30;6.60;;;;;;;14.82;76.91;99780.57;106977;1271;95189;-91
2023/09/30 20:31:21;;;;;;;17.00;6.50;;;;;;;14.59;76.84;99786.45;106830;1270;109344;-92
2023/09/30 20:48:26;;;;;;;16.40;6.80;;;;;;;14.32;76.83;99796.69;84968;1271;106231;-90
2023/09/30 21:01:08;;;;;;;20.00;6.60;;;;;;;14.10;76.63;99802.13;101336;1269;94241;-92
2023/09/30 21:04:19;;;;;;;15.40;5.80;;;;;;;14.04;76.67;99805.23;107095;1267;106679;-91
2023/09/30 21:13:28;;;;;;;18.10;5.90;;;;;;;13.85;76.48;99807.35;107280;1269;108620;-91
2023/09/30 21:29:31;;;;;;;18.00;6.40;;;;;;;13.70;76.76;99831.44;107785;1262;107060;31
2023/09/30 21:38:39;;;;;;;;;;;;;;;;;;;;;
2023/09/30 21:41:46;;;;;;;15.80;5.90;;;;;;;13.67;76.61;99842.36;106702;1276;94279;-91
2023/09/30 21:58:05;;;;;;;;;;;;;;;;;;;;;
2023/09/30 22:01:45;;;;;;;15.70;5.30;;;;;;;13.49;76.53;99847.71;106995;1272;107904;-92
2023/09/30 22:26:00;;;;;;;;;;;;;;;;;;;;;
2023/09/30 22:42:46;;;;;;;;;;;;;;;;;;;;;
2023/09/30 22:45:58;;;;;;;16.40;6.20;;;;;;;13.16;76.38;99866.79;106353;1278;95234;-91
2023/09/30 22:52:45;;;;;;;15.40;5.60;;;;;;;13.05;76.25;99880.73;101141;1272;108793;-90
2023/09/30 23:02:51;;;;;;;17.20;6.00;;;;;;;13.03;76.43;99898.67;107077;1276;93393;-93
2023/09/30 23:06:38;;;;;;;;;;;;;;;;;;;;;
2023/09/30 23:19:16;;;;;;;24.30;6.30;;;;;;;13.03;76.37;99905.98;107208;1278;93299;-93
2023/09/30 23:22:33;;;;;;;;;;;;;;;;;;;;;
2023/09/30 23:26:01;;;;;;;19.90;5.90;;;;;;;13.03;76.31;99901.04;107038;1279;109865;-93
2023/09/30 23:33:13;;;;;;;;;;;;;;;;;;;;;
2023/09/30 23:36:05;;;;;;;19.60;6.20;;;;;;;12.99;76.30;99891.71;106848;1280;93184;-91
2023/09/30 23:39:26;;;;;;;21.00;7.20;;;;;;;12.99;76.30;99893.66;107175;1276;93011;-94
2023/09/30 23:42:49;;;;;;;21.20;6.90;;;;;;;12.97;76.34;99893.06;107097;1280;110292;-93
2023/09/30 23:45:58;;;;;;;20.50;6.10;;;;;;;12.98;76.33;99886.77;107271;1279;94143;-93
2023/09/30 23:56:17;;;;;;;20.50;6.30;;;;;;;12.93;76.30;99888.89;106970;1280;92990;-93
2023/09/30 23:59:23;;;;;;;20.60;6.30;;;;;;;12.92;76.36;99891.63;107355;1272;107222;-91
